sensor_id;sensor_type;location;lat;lon;timestamp;P1;durP1;ratioP1;P2;durP2;ratioP2
83595;SDS011;73564;45.026;38.952;2024-01-07T00:00:04;2.70;;;0.95;;
83595;SDS011;73564;45.026;38.952;2024-01-07T00:02:30;1.63;;;0.82;;
83595;SDS011;73564;45.026;38.952;2024-01-07T00:04:56;3.55;;;1.02;;
83595;SDS011;73564;45.026;38.952;2024-01-07T00:07:23;2.58;;;1.15;;
83595;SDS011;73564;45.026;38.952;2024-01-07T00:09:49;2.08;;;0.82;;
83595;SDS011;73564;45.026;38.952;2024-01-07T00:12:14;3.70;;;1.27;;
83595;SDS011;73564;45.026;38.952;2024-01-07T00:14:40;3.83;;;0.73;;
83595;SDS011;73564;45.026;38.952;2024-01-07T00:17:06;2.55;;;0.95;;
83595;SDS011;73564;45.026;38.952;2024-01-07T00:19:32;3.88;;;1.00;;
83595;SDS011;73564;45.026;38.952;2024-01-07T00:22:00;2.80;;;1.13;;
83595;SDS011;73564;45.026;38.952;2024-01-07T00:24:26;3.53;;;1.10;;
83595;SDS011;73564;45.026;38.952;2024-01-07T00:26:54;3.15;;;0.73;;
83595;SDS011;73564;45.026;38.952;2024-01-07T00:29:20;3.70;;;1.70;;
83595;SDS011;73564;45.026;38.952;2024-01-07T00:31:46;4.70;;;1.60;;
83595;SDS011;73564;45.026;38.952;2024-01-07T00:34:12;5.18;;;1.40;;
83595;SDS011;73564;45.026;38.952;2024-01-07T00:36:38;4.88;;;1.58;;
83595;SDS011;73564;45.026;38.952;2024-01-07T00:39:04;2.70;;;1.40;;
83595;SDS011;73564;45.026;38.952;2024-01-07T00:41:31;4.65;;;1.77;;
83595;SDS011;73564;45.026;38.952;2024-01-07T00:43:57;4.55;;;2.45;;
83595;SDS011;73564;45.026;38.952;2024-01-07T00:46:23;3.45;;;1.15;;
83595;SDS011;73564;45.026;38.952;2024-01-07T00:48:49;3.95;;;1.50;;
83595;SDS011;73564;45.026;38.952;2024-01-07T00:51:15;6.18;;;1.83;;
83595;SDS011;73564;45.026;38.952;2024-01-07T00:53:41;2.88;;;1.20;;
83595;SDS011;73564;45.026;38.952;2024-01-07T00:56:06;2.67;;;1.40;;
83595;SDS011;73564;45.026;38.952;2024-01-07T00:58:32;3.92;;;1.58;;
83595;SDS011;73564;45.026;38.952;2024-01-07T01:00:58;6.00;;;1.35;;
83595;SDS011;73564;45.026;38.952;2024-01-07T01:03:25;3.70;;;1.45;;
83595;SDS011;73564;45.026;38.952;2024-01-07T01:05:52;2.92;;;1.65;;
83595;SDS011;73564;45.026;38.952;2024-01-07T01:08:18;3.05;;;1.55;;
83595;SDS011;73564;45.026;38.952;2024-01-07T01:10:44;3.40;;;1.70;;
83595;SDS011;73564;45.026;38.952;2024-01-07T01:13:09;4.90;;;1.98;;
83595;SDS011;73564;45.026;38.952;2024-01-07T01:15:36;4.63;;;1.85;;
83595;SDS011;73564;45.026;38.952;2024-01-07T01:18:01;5.47;;;1.48;;
83595;SDS011;73564;45.026;38.952;2024-01-07T01:20:28;3.70;;;1.63;;
83595;SDS011;73564;45.026;38.952;2024-01-07T01:22:53;4.45;;;1.40;;
83595;SDS011;73564;45.026;38.952;2024-01-07T01:25:19;2.85;;;1.63;;
83595;SDS011;73564;45.026;38.952;2024-01-07T01:27:46;4.00;;;1.77;;
83595;SDS011;73564;45.026;38.952;2024-01-07T01:30:13;3.22;;;1.92;;
83595;SDS011;73564;45.026;38.952;2024-01-07T01:32:39;7.00;;;2.45;;
83595;SDS011;73564;45.026;38.952;2024-01-07T01:35:05;3.78;;;1.88;;
83595;SDS011;73564;45.026;38.952;2024-01-07T01:37:31;4.00;;;1.58;;
83595;SDS011;73564;45.026;38.952;2024-01-07T01:40:00;4.18;;;1.55;;
83595;SDS011;73564;45.026;38.952;2024-01-07T01:42:26;3.30;;;1.58;;
83595;SDS011;73564;45.026;38.952;2024-01-07T01:44:52;3.97;;;2.38;;
83595;SDS011;73564;45.026;38.952;2024-01-07T01:47:22;5.47;;;1.80;;
83595;SDS011;73564;45.026;38.952;2024-01-07T01:49:48;3.15;;;1.60;;
83595;SDS011;73564;45.026;38.952;2024-01-07T01:52:14;4.05;;;2.15;;
83595;SDS011;73564;45.026;38.952;2024-01-07T01:54:40;4.85;;;2.03;;
83595;SDS011;73564;45.026;38.952;2024-01-07T01:57:07;3.75;;;1.85;;
83595;SDS011;73564;45.026;38.952;2024-01-07T01:59:37;5.95;;;1.83;;
83595;SDS011;73564;45.026;38.952;2024-01-07T02:02:03;3.50;;;1.55;;
83595;SDS011;73564;45.026;38.952;2024-01-07T02:04:30;3.28;;;1.45;;
83595;SDS011;73564;45.026;38.952;2024-01-07T02:06:56;4.78;;;1.98;;
83595;SDS011;73564;45.026;38.952;2024-01-07T02:09:21;3.80;;;1.80;;
83595;SDS011;73564;45.026;38.952;2024-01-07T02:14:45;5.00;;;2.05;;
83595;SDS011;73564;45.026;38.952;2024-01-07T02:17:11;4.82;;;2.28;;
83595;SDS011;73564;45.026;38.952;2024-01-07T02:19:37;3.38;;;1.73;;
83595;SDS011;73564;45.026;38.952;2024-01-07T02:22:03;4.10;;;2.00;;
83595;SDS011;73564;45.026;38.952;2024-01-07T02:24:29;4.40;;;1.95;;
83595;SDS011;73564;45.026;38.952;2024-01-07T02:26:56;5.47;;;2.13;;
83595;SDS011;73564;45.026;38.952;2024-01-07T02:29:22;4.25;;;2.40;;
83595;SDS011;73564;45.026;38.952;2024-01-07T02:31:48;4.13;;;2.55;;
83595;SDS011;73564;45.026;38.952;2024-01-07T02:34:15;5.70;;;2.60;;
83595;SDS011;73564;45.026;38.952;2024-01-07T02:36:40;5.90;;;2.20;;
83595;SDS011;73564;45.026;38.952;2024-01-07T02:39:06;4.45;;;2.08;;
83595;SDS011;73564;45.026;38.952;2024-01-07T02:41:32;3.50;;;2.03;;
83595;SDS011;73564;45.026;38.952;2024-01-07T02:43:58;5.20;;;2.25;;
83595;SDS011;73564;45.026;38.952;2024-01-07T02:46:24;4.28;;;2.20;;
83595;SDS011;73564;45.026;38.952;2024-01-07T02:48:49;7.40;;;2.45;;
83595;SDS011;73564;45.026;38.952;2024-01-07T02:51:15;4.35;;;2.17;;
83595;SDS011;73564;45.026;38.952;2024-01-07T02:53:41;7.40;;;2.13;;
83595;SDS011;73564;45.026;38.952;2024-01-07T02:56:07;2.78;;;1.92;;
83595;SDS011;73564;45.026;38.952;2024-01-07T02:58:34;5.28;;;2.13;;
83595;SDS011;73564;45.026;38.952;2024-01-07T03:00:59;6.25;;;2.58;;
83595;SDS011;73564;45.026;38.952;2024-01-07T03:03:25;5.00;;;2.15;;
83595;SDS011;73564;45.026;38.952;2024-01-07T03:05:51;8.05;;;4.30;;
83595;SDS011;73564;45.026;38.952;2024-01-07T03:08:17;8.60;;;3.60;;
83595;SDS011;73564;45.026;38.952;2024-01-07T03:10:43;8.35;;;4.78;;
83595;SDS011;73564;45.026;38.952;2024-01-07T03:13:09;7.30;;;3.95;;
83595;SDS011;73564;45.026;38.952;2024-01-07T03:15:34;6.50;;;3.83;;
83595;SDS011;73564;45.026;38.952;2024-01-07T03:18:00;5.07;;;2.92;;
83595;SDS011;73564;45.026;38.952;2024-01-07T03:20:26;9.05;;;3.47;;
83595;SDS011;73564;45.026;38.952;2024-01-07T03:22:52;6.75;;;3.10;;
83595;SDS011;73564;45.026;38.952;2024-01-07T03:25:18;5.13;;;2.70;;
83595;SDS011;73564;45.026;38.952;2024-01-07T03:27:44;4.60;;;2.75;;
83595;SDS011;73564;45.026;38.952;2024-01-07T03:30:10;6.88;;;2.60;;
83595;SDS011;73564;45.026;38.952;2024-01-07T03:32:36;5.07;;;2.50;;
83595;SDS011;73564;45.026;38.952;2024-01-07T03:35:02;6.35;;;2.33;;
83595;SDS011;73564;45.026;38.952;2024-01-07T03:37:28;6.78;;;2.75;;
83595;SDS011;73564;45.026;38.952;2024-01-07T03:39:54;3.83;;;2.35;;
83595;SDS011;73564;45.026;38.952;2024-01-07T03:42:20;4.18;;;2.63;;
83595;SDS011;73564;45.026;38.952;2024-01-07T03:44:46;6.07;;;2.83;;
83595;SDS011;73564;45.026;38.952;2024-01-07T03:47:11;6.53;;;2.80;;
83595;SDS011;73564;45.026;38.952;2024-01-07T03:49:37;6.47;;;2.78;;
83595;SDS011;73564;45.026;38.952;2024-01-07T03:52:04;10.27;;;3.28;;
83595;SDS011;73564;45.026;38.952;2024-01-07T03:54:31;11.15;;;3.85;;
83595;SDS011;73564;45.026;38.952;2024-01-07T03:56:57;8.55;;;4.15;;
83595;SDS011;73564;45.026;38.952;2024-01-07T03:59:22;6.55;;;2.92;;
83595;SDS011;73564;45.026;38.952;2024-01-07T04:01:50;8.10;;;3.45;;
83595;SDS011;73564;45.026;38.952;2024-01-07T04:04:18;7.78;;;3.20;;
83595;SDS011;73564;45.026;38.952;2024-01-07T04:06:44;5.32;;;2.60;;
83595;SDS011;73564;45.026;38.952;2024-01-07T04:09:09;5.43;;;2.78;;
83595;SDS011;73564;45.026;38.952;2024-01-07T04:11:39;4.68;;;2.47;;
83595;SDS011;73564;45.026;38.952;2024-01-07T04:14:06;4.18;;;2.38;;
83595;SDS011;73564;45.026;38.952;2024-01-07T04:16:31;6.93;;;2.70;;
83595;SDS011;73564;45.026;38.952;2024-01-07T04:18:57;6.20;;;2.83;;
83595;SDS011;73564;45.026;38.952;2024-01-07T04:21:23;5.00;;;2.45;;
83595;SDS011;73564;45.026;38.952;2024-01-07T04:23:49;4.80;;;2.35;;
83595;SDS011;73564;45.026;38.952;2024-01-07T04:26:14;7.00;;;3.25;;
83595;SDS011;73564;45.026;38.952;2024-01-07T04:28:41;6.28;;;2.60;;
83595;SDS011;73564;45.026;38.952;2024-01-07T04:31:07;6.55;;;2.70;;
83595;SDS011;73564;45.026;38.952;2024-01-07T04:33:33;8.20;;;2.63;;
83595;SDS011;73564;45.026;38.952;2024-01-07T04:35:59;4.18;;;2.10;;
83595;SDS011;73564;45.026;38.952;2024-01-07T04:38:26;7.38;;;2.80;;
83595;SDS011;73564;45.026;38.952;2024-01-07T04:40:52;5.53;;;2.42;;
83595;SDS011;73564;45.026;38.952;2024-01-07T04:43:21;4.63;;;2.33;;
83595;SDS011;73564;45.026;38.952;2024-01-07T04:45:46;3.78;;;2.38;;
83595;SDS011;73564;45.026;38.952;2024-01-07T04:48:13;6.28;;;3.25;;
83595;SDS011;73564;45.026;38.952;2024-01-07T04:50:39;8.18;;;2.60;;
83595;SDS011;73564;45.026;38.952;2024-01-07T04:53:07;4.30;;;2.42;;
83595;SDS011;73564;45.026;38.952;2024-01-07T04:55:33;4.45;;;2.30;;
83595;SDS011;73564;45.026;38.952;2024-01-07T04:57:59;8.98;;;3.65;;
83595;SDS011;73564;45.026;38.952;2024-01-07T05:00:26;7.43;;;3.17;;
83595;SDS011;73564;45.026;38.952;2024-01-07T05:02:52;6.13;;;2.15;;
83595;SDS011;73564;45.026;38.952;2024-01-07T05:05:18;4.95;;;2.75;;
83595;SDS011;73564;45.026;38.952;2024-01-07T05:07:44;5.18;;;2.40;;
83595;SDS011;73564;45.026;38.952;2024-01-07T05:10:09;6.70;;;3.13;;
83595;SDS011;73564;45.026;38.952;2024-01-07T05:12:35;5.53;;;2.65;;
83595;SDS011;73564;45.026;38.952;2024-01-07T05:15:01;6.57;;;2.25;;
83595;SDS011;73564;45.026;38.952;2024-01-07T05:17:28;7.15;;;2.42;;
83595;SDS011;73564;45.026;38.952;2024-01-07T05:19:54;5.82;;;3.03;;
83595;SDS011;73564;45.026;38.952;2024-01-07T05:22:21;4.35;;;2.30;;
83595;SDS011;73564;45.026;38.952;2024-01-07T05:24:47;6.00;;;2.85;;
83595;SDS011;73564;45.026;38.952;2024-01-07T05:27:12;6.72;;;2.33;;
83595;SDS011;73564;45.026;38.952;2024-01-07T05:29:38;6.70;;;2.38;;
83595;SDS011;73564;45.026;38.952;2024-01-07T05:32:04;6.10;;;2.22;;
83595;SDS011;73564;45.026;38.952;2024-01-07T05:34:31;7.78;;;2.67;;
83595;SDS011;73564;45.026;38.952;2024-01-07T05:36:57;12.77;;;2.83;;
83595;SDS011;73564;45.026;38.952;2024-01-07T05:39:23;5.55;;;2.50;;
83595;SDS011;73564;45.026;38.952;2024-01-07T05:41:49;6.20;;;2.63;;
83595;SDS011;73564;45.026;38.952;2024-01-07T05:44:14;9.23;;;2.67;;
83595;SDS011;73564;45.026;38.952;2024-01-07T05:46:40;4.45;;;2.17;;
83595;SDS011;73564;45.026;38.952;2024-01-07T05:49:06;4.93;;;2.17;;
83595;SDS011;73564;45.026;38.952;2024-01-07T05:51:33;6.50;;;2.40;;
83595;SDS011;73564;45.026;38.952;2024-01-07T05:53:59;5.40;;;2.00;;
83595;SDS011;73564;45.026;38.952;2024-01-07T05:56:24;5.78;;;2.20;;
83595;SDS011;73564;45.026;38.952;2024-01-07T05:58:50;4.47;;;1.85;;
83595;SDS011;73564;45.026;38.952;2024-01-07T06:01:19;5.63;;;2.22;;
83595;SDS011;73564;45.026;38.952;2024-01-07T06:03:46;6.78;;;2.65;;
83595;SDS011;73564;45.026;38.952;2024-01-07T06:06:15;4.72;;;2.35;;
83595;SDS011;73564;45.026;38.952;2024-01-07T06:08:41;6.25;;;2.90;;
83595;SDS011;73564;45.026;38.952;2024-01-07T06:11:07;6.80;;;2.60;;
83595;SDS011;73564;45.026;38.952;2024-01-07T06:13:33;4.93;;;2.65;;
83595;SDS011;73564;45.026;38.952;2024-01-07T06:15:59;5.50;;;2.75;;
83595;SDS011;73564;45.026;38.952;2024-01-07T06:18:25;8.68;;;2.80;;
83595;SDS011;73564;45.026;38.952;2024-01-07T06:20:50;8.05;;;3.67;;
83595;SDS011;73564;45.026;38.952;2024-01-07T06:23:16;6.68;;;3.22;;
83595;SDS011;73564;45.026;38.952;2024-01-07T06:25:43;9.88;;;3.50;;
83595;SDS011;73564;45.026;38.952;2024-01-07T06:28:09;7.30;;;2.50;;
83595;SDS011;73564;45.026;38.952;2024-01-07T06:30:37;9.95;;;3.40;;
83595;SDS011;73564;45.026;38.952;2024-01-07T06:33:03;10.32;;;3.83;;
83595;SDS011;73564;45.026;38.952;2024-01-07T06:35:29;13.15;;;3.55;;
83595;SDS011;73564;45.026;38.952;2024-01-07T06:37:55;6.43;;;2.65;;
83595;SDS011;73564;45.026;38.952;2024-01-07T06:40:21;8.30;;;4.20;;
83595;SDS011;73564;45.026;38.952;2024-01-07T06:42:48;6.05;;;3.50;;
83595;SDS011;73564;45.026;38.952;2024-01-07T06:45:14;12.40;;;3.97;;
83595;SDS011;73564;45.026;38.952;2024-01-07T06:47:42;5.25;;;2.75;;
83595;SDS011;73564;45.026;38.952;2024-01-07T06:50:08;8.88;;;3.80;;
83595;SDS011;73564;45.026;38.952;2024-01-07T06:52:35;5.90;;;3.22;;
83595;SDS011;73564;45.026;38.952;2024-01-07T06:55:01;8.07;;;2.90;;
83595;SDS011;73564;45.026;38.952;2024-01-07T06:57:27;10.40;;;4.03;;
83595;SDS011;73564;45.026;38.952;2024-01-07T06:59:52;11.88;;;4.00;;
83595;SDS011;73564;45.026;38.952;2024-01-07T07:02:19;7.20;;;3.58;;
83595;SDS011;73564;45.026;38.952;2024-01-07T07:04:46;6.35;;;3.35;;
83595;SDS011;73564;45.026;38.952;2024-01-07T07:07:12;10.25;;;4.72;;
83595;SDS011;73564;45.026;38.952;2024-01-07T07:09:38;9.57;;;3.90;;
83595;SDS011;73564;45.026;38.952;2024-01-07T07:12:04;8.60;;;3.63;;
83595;SDS011;73564;45.026;38.952;2024-01-07T07:14:31;7.78;;;4.82;;
83595;SDS011;73564;45.026;38.952;2024-01-07T07:16:57;8.90;;;3.63;;
83595;SDS011;73564;45.026;38.952;2024-01-07T07:19:23;5.95;;;3.35;;
83595;SDS011;73564;45.026;38.952;2024-01-07T07:21:49;11.23;;;4.38;;
83595;SDS011;73564;45.026;38.952;2024-01-07T07:24:14;7.55;;;3.13;;
83595;SDS011;73564;45.026;38.952;2024-01-07T07:26:40;7.20;;;3.33;;
83595;SDS011;73564;45.026;38.952;2024-01-07T07:29:07;10.20;;;4.00;;
83595;SDS011;73564;45.026;38.952;2024-01-07T07:31:34;10.77;;;3.15;;
83595;SDS011;73564;45.026;38.952;2024-01-07T07:34:04;10.63;;;2.72;;
83595;SDS011;73564;45.026;38.952;2024-01-07T07:36:30;6.68;;;3.25;;
83595;SDS011;73564;45.026;38.952;2024-01-07T07:38:56;7.70;;;3.35;;
83595;SDS011;73564;45.026;38.952;2024-01-07T07:41:22;8.02;;;3.13;;
83595;SDS011;73564;45.026;38.952;2024-01-07T07:43:48;7.95;;;3.40;;
83595;SDS011;73564;45.026;38.952;2024-01-07T07:46:13;7.88;;;3.03;;
83595;SDS011;73564;45.026;38.952;2024-01-07T07:48:41;6.07;;;2.83;;
83595;SDS011;73564;45.026;38.952;2024-01-07T07:51:07;8.30;;;2.50;;
83595;SDS011;73564;45.026;38.952;2024-01-07T07:53:33;6.40;;;2.53;;
83595;SDS011;73564;45.026;38.952;2024-01-07T07:55:58;7.43;;;3.58;;
83595;SDS011;73564;45.026;38.952;2024-01-07T07:58:24;6.20;;;2.50;;
83595;SDS011;73564;45.026;38.952;2024-01-07T08:00:50;7.10;;;2.85;;
83595;SDS011;73564;45.026;38.952;2024-01-07T08:03:16;9.15;;;3.72;;
83595;SDS011;73564;45.026;38.952;2024-01-07T08:05:42;8.13;;;3.30;;
83595;SDS011;73564;45.026;38.952;2024-01-07T08:08:07;7.18;;;2.88;;
83595;SDS011;73564;45.026;38.952;2024-01-07T08:10:33;5.45;;;2.60;;
83595;SDS011;73564;45.026;38.952;2024-01-07T08:13:00;8.30;;;3.30;;
83595;SDS011;73564;45.026;38.952;2024-01-07T08:15:26;7.97;;;3.10;;
83595;SDS011;73564;45.026;38.952;2024-01-07T08:17:52;6.40;;;3.33;;
83595;SDS011;73564;45.026;38.952;2024-01-07T08:20:18;7.60;;;2.80;;
83595;SDS011;73564;45.026;38.952;2024-01-07T08:22:44;5.55;;;3.08;;
83595;SDS011;73564;45.026;38.952;2024-01-07T08:25:10;6.47;;;2.60;;
83595;SDS011;73564;45.026;38.952;2024-01-07T08:27:36;5.07;;;2.90;;
83595;SDS011;73564;45.026;38.952;2024-01-07T08:30:02;7.30;;;2.95;;
83595;SDS011;73564;45.026;38.952;2024-01-07T08:32:29;8.00;;;3.67;;
83595;SDS011;73564;45.026;38.952;2024-01-07T08:34:55;8.35;;;3.40;;
83595;SDS011;73564;45.026;38.952;2024-01-07T08:37:20;7.95;;;3.55;;
83595;SDS011;73564;45.026;38.952;2024-01-07T08:39:46;8.93;;;3.65;;
83595;SDS011;73564;45.026;38.952;2024-01-07T08:42:12;7.53;;;3.17;;
83595;SDS011;73564;45.026;38.952;2024-01-07T08:44:37;6.57;;;2.78;;
83595;SDS011;73564;45.026;38.952;2024-01-07T08:47:04;5.30;;;3.00;;
83595;SDS011;73564;45.026;38.952;2024-01-07T08:49:30;6.20;;;2.33;;
83595;SDS011;73564;45.026;38.952;2024-01-07T08:51:58;8.52;;;3.47;;
83595;SDS011;73564;45.026;38.952;2024-01-07T08:54:24;6.85;;;3.15;;
83595;SDS011;73564;45.026;38.952;2024-01-07T08:56:51;10.95;;;3.40;;
83595;SDS011;73564;45.026;38.952;2024-01-07T08:59:16;8.10;;;3.42;;
83595;SDS011;73564;45.026;38.952;2024-01-07T09:01:42;7.65;;;3.45;;
83595;SDS011;73564;45.026;38.952;2024-01-07T09:04:08;7.50;;;3.20;;
83595;SDS011;73564;45.026;38.952;2024-01-07T09:06:34;7.22;;;3.03;;
83595;SDS011;73564;45.026;38.952;2024-01-07T09:09:00;5.25;;;3.20;;
83595;SDS011;73564;45.026;38.952;2024-01-07T09:11:25;9.27;;;3.72;;
83595;SDS011;73564;45.026;38.952;2024-01-07T09:13:51;8.00;;;3.35;;
83595;SDS011;73564;45.026;38.952;2024-01-07T09:16:17;10.35;;;3.53;;
83595;SDS011;73564;45.026;38.952;2024-01-07T09:18:43;7.95;;;4.18;;
83595;SDS011;73564;45.026;38.952;2024-01-07T09:21:09;7.82;;;3.58;;
83595;SDS011;73564;45.026;38.952;2024-01-07T09:23:35;13.45;;;4.22;;
83595;SDS011;73564;45.026;38.952;2024-01-07T09:26:04;7.20;;;3.88;;
83595;SDS011;73564;45.026;38.952;2024-01-07T09:28:30;9.98;;;3.80;;
83595;SDS011;73564;45.026;38.952;2024-01-07T09:30:56;8.45;;;3.92;;
83595;SDS011;73564;45.026;38.952;2024-01-07T09:33:22;10.90;;;4.35;;
83595;SDS011;73564;45.026;38.952;2024-01-07T09:35:51;9.52;;;3.78;;
83595;SDS011;73564;45.026;38.952;2024-01-07T09:38:19;8.50;;;4.30;;
83595;SDS011;73564;45.026;38.952;2024-01-07T09:40:45;8.43;;;4.25;;
83595;SDS011;73564;45.026;38.952;2024-01-07T09:43:11;7.75;;;4.43;;
83595;SDS011;73564;45.026;38.952;2024-01-07T09:45:38;8.93;;;4.28;;
83595;SDS011;73564;45.026;38.952;2024-01-07T09:48:06;9.23;;;3.92;;
83595;SDS011;73564;45.026;38.952;2024-01-07T09:50:32;8.40;;;4.00;;
83595;SDS011;73564;45.026;38.952;2024-01-07T09:52:58;7.75;;;3.60;;
83595;SDS011;73564;45.026;38.952;2024-01-07T09:55:31;12.95;;;6.05;;
83595;SDS011;73564;45.026;38.952;2024-01-07T09:58:00;6.85;;;3.40;;
83595;SDS011;73564;45.026;38.952;2024-01-07T10:00:26;8.32;;;3.42;;
83595;SDS011;73564;45.026;38.952;2024-01-07T10:02:52;7.15;;;3.72;;
83595;SDS011;73564;45.026;38.952;2024-01-07T10:05:19;8.85;;;3.83;;
83595;SDS011;73564;45.026;38.952;2024-01-07T10:07:45;8.07;;;3.85;;
83595;SDS011;73564;45.026;38.952;2024-01-07T10:10:12;11.07;;;4.38;;
83595;SDS011;73564;45.026;38.952;2024-01-07T10:12:39;10.82;;;3.85;;
83595;SDS011;73564;45.026;38.952;2024-01-07T10:15:04;13.50;;;5.10;;
83595;SDS011;73564;45.026;38.952;2024-01-07T10:17:31;14.02;;;5.28;;
83595;SDS011;73564;45.026;38.952;2024-01-07T10:19:56;10.75;;;4.40;;
83595;SDS011;73564;45.026;38.952;2024-01-07T10:22:23;6.32;;;4.20;;
83595;SDS011;73564;45.026;38.952;2024-01-07T10:24:51;8.18;;;3.40;;
83595;SDS011;73564;45.026;38.952;2024-01-07T10:27:17;11.60;;;4.53;;
83595;SDS011;73564;45.026;38.952;2024-01-07T10:29:42;7.40;;;3.33;;
83595;SDS011;73564;45.026;38.952;2024-01-07T10:32:09;6.97;;;3.78;;
83595;SDS011;73564;45.026;38.952;2024-01-07T10:34:35;10.50;;;3.50;;
83595;SDS011;73564;45.026;38.952;2024-01-07T10:37:02;6.50;;;3.35;;
83595;SDS011;73564;45.026;38.952;2024-01-07T10:39:30;8.45;;;3.70;;
83595;SDS011;73564;45.026;38.952;2024-01-07T10:41:56;5.90;;;2.90;;
83595;SDS011;73564;45.026;38.952;2024-01-07T10:44:41;6.18;;;3.40;;
83595;SDS011;73564;45.026;38.952;2024-01-07T10:47:07;10.18;;;5.00;;
83595;SDS011;73564;45.026;38.952;2024-01-07T10:49:35;7.40;;;4.18;;
83595;SDS011;73564;45.026;38.952;2024-01-07T10:52:08;7.05;;;3.78;;
83595;SDS011;73564;45.026;38.952;2024-01-07T10:54:34;6.97;;;3.40;;
83595;SDS011;73564;45.026;38.952;2024-01-07T11:00:00;5.32;;;3.00;;
83595;SDS011;73564;45.026;38.952;2024-01-07T11:02:32;7.53;;;3.58;;
83595;SDS011;73564;45.026;38.952;2024-01-07T11:08:06;7.18;;;3.38;;
83595;SDS011;73564;45.026;38.952;2024-01-07T11:10:43;10.23;;;3.58;;
83595;SDS011;73564;45.026;38.952;2024-01-07T11:16:01;7.10;;;3.30;;
83595;SDS011;73564;45.026;38.952;2024-01-07T11:18:27;8.18;;;3.65;;
83595;SDS011;73564;45.026;38.952;2024-01-07T11:20:59;8.48;;;3.53;;
83595;SDS011;73564;45.026;38.952;2024-01-07T11:23:32;11.07;;;4.00;;
83595;SDS011;73564;45.026;38.952;2024-01-07T11:26:02;11.85;;;3.72;;
83595;SDS011;73564;45.026;38.952;2024-01-07T11:28:47;10.95;;;4.15;;
83595;SDS011;73564;45.026;38.952;2024-01-07T11:31:15;8.43;;;4.15;;
83595;SDS011;73564;45.026;38.952;2024-01-07T11:33:43;8.45;;;3.78;;
83595;SDS011;73564;45.026;38.952;2024-01-07T11:36:11;11.52;;;4.20;;
83595;SDS011;73564;45.026;38.952;2024-01-07T11:38:44;10.85;;;4.07;;
83595;SDS011;73564;45.026;38.952;2024-01-07T11:41:13;9.63;;;3.45;;
83595;SDS011;73564;45.026;38.952;2024-01-07T11:44:01;11.48;;;4.18;;
83595;SDS011;73564;45.026;38.952;2024-01-07T11:48:56;8.98;;;3.65;;
83595;SDS011;73564;45.026;38.952;2024-01-07T11:51:26;8.45;;;4.03;;
83595;SDS011;73564;45.026;38.952;2024-01-07T11:53:52;10.52;;;5.30;;
83595;SDS011;73564;45.026;38.952;2024-01-07T11:56:18;12.27;;;4.70;;
83595;SDS011;73564;45.026;38.952;2024-01-07T11:58:44;14.38;;;4.53;;
83595;SDS011;73564;45.026;38.952;2024-01-07T12:01:10;9.63;;;4.85;;
83595;SDS011;73564;45.026;38.952;2024-01-07T12:03:36;11.07;;;5.13;;
83595;SDS011;73564;45.026;38.952;2024-01-07T12:06:02;14.23;;;5.57;;
83595;SDS011;73564;45.026;38.952;2024-01-07T12:08:29;11.90;;;5.35;;
83595;SDS011;73564;45.026;38.952;2024-01-07T12:10:56;13.43;;;5.60;;
83595;SDS011;73564;45.026;38.952;2024-01-07T12:13:22;15.98;;;5.65;;
83595;SDS011;73564;45.026;38.952;2024-01-07T12:15:48;13.57;;;6.05;;
83595;SDS011;73564;45.026;38.952;2024-01-07T12:18:15;14.30;;;6.45;;
83595;SDS011;73564;45.026;38.952;2024-01-07T12:20:41;15.73;;;6.60;;
83595;SDS011;73564;45.026;38.952;2024-01-07T12:23:07;13.40;;;4.95;;
83595;SDS011;73564;45.026;38.952;2024-01-07T12:27:59;8.55;;;3.78;;
83595;SDS011;73564;45.026;38.952;2024-01-07T12:30:25;8.20;;;3.90;;
83595;SDS011;73564;45.026;38.952;2024-01-07T12:32:52;6.45;;;3.40;;
83595;SDS011;73564;45.026;38.952;2024-01-07T12:35:18;7.55;;;3.42;;
83595;SDS011;73564;45.026;38.952;2024-01-07T12:37:44;9.82;;;3.80;;
83595;SDS011;73564;45.026;38.952;2024-01-07T12:40:10;7.95;;;3.58;;
83595;SDS011;73564;45.026;38.952;2024-01-07T12:42:37;6.75;;;3.10;;
83595;SDS011;73564;45.026;38.952;2024-01-07T12:45:06;6.85;;;2.78;;
83595;SDS011;73564;45.026;38.952;2024-01-07T12:47:32;5.28;;;2.28;;
83595;SDS011;73564;45.026;38.952;2024-01-07T12:49:59;6.30;;;2.30;;
83595;SDS011;73564;45.026;38.952;2024-01-07T12:52:25;3.47;;;1.70;;
83595;SDS011;73564;45.026;38.952;2024-01-07T12:54:52;5.28;;;2.08;;
83595;SDS011;73564;45.026;38.952;2024-01-07T12:57:18;6.13;;;2.25;;
83595;SDS011;73564;45.026;38.952;2024-01-07T12:59:44;5.47;;;1.98;;
83595;SDS011;73564;45.026;38.952;2024-01-07T13:02:09;6.93;;;2.47;;
83595;SDS011;73564;45.026;38.952;2024-01-07T13:04:35;7.93;;;3.00;;
83595;SDS011;73564;45.026;38.952;2024-01-07T13:07:01;5.72;;;2.35;;
83595;SDS011;73564;45.026;38.952;2024-01-07T13:09:27;7.45;;;2.50;;
83595;SDS011;73564;45.026;38.952;2024-01-07T13:11:52;3.92;;;2.25;;
83595;SDS011;73564;45.026;38.952;2024-01-07T13:14:18;5.78;;;2.53;;
83595;SDS011;73564;45.026;38.952;2024-01-07T13:16:44;5.22;;;2.35;;
83595;SDS011;73564;45.026;38.952;2024-01-07T13:19:10;6.22;;;2.13;;
83595;SDS011;73564;45.026;38.952;2024-01-07T13:21:35;5.93;;;2.28;;
83595;SDS011;73564;45.026;38.952;2024-01-07T13:24:02;8.77;;;2.20;;
83595;SDS011;73564;45.026;38.952;2024-01-07T13:26:28;8.77;;;2.13;;
83595;SDS011;73564;45.026;38.952;2024-01-07T13:28:54;4.68;;;2.40;;
83595;SDS011;73564;45.026;38.952;2024-01-07T13:31:20;4.25;;;2.20;;
83595;SDS011;73564;45.026;38.952;2024-01-07T13:33:46;5.82;;;2.17;;
83595;SDS011;73564;45.026;38.952;2024-01-07T13:36:12;4.68;;;2.10;;
83595;SDS011;73564;45.026;38.952;2024-01-07T13:38:38;6.10;;;2.22;;
83595;SDS011;73564;45.026;38.952;2024-01-07T13:41:07;4.85;;;2.17;;
83595;SDS011;73564;45.026;38.952;2024-01-07T13:43:33;4.72;;;2.28;;
83595;SDS011;73564;45.026;38.952;2024-01-07T13:45:59;8.25;;;2.70;;
83595;SDS011;73564;45.026;38.952;2024-01-07T13:48:27;8.63;;;3.25;;
83595;SDS011;73564;45.026;38.952;2024-01-07T13:50:53;6.72;;;3.10;;
83595;SDS011;73564;45.026;38.952;2024-01-07T13:53:19;6.18;;;1.98;;
83595;SDS011;73564;45.026;38.952;2024-01-07T13:55:45;5.97;;;2.25;;
83595;SDS011;73564;45.026;38.952;2024-01-07T13:58:11;7.25;;;2.67;;
83595;SDS011;73564;45.026;38.952;2024-01-07T14:00:38;7.07;;;2.58;;
83595;SDS011;73564;45.026;38.952;2024-01-07T14:03:03;6.85;;;2.53;;
83595;SDS011;73564;45.026;38.952;2024-01-07T14:05:29;5.65;;;2.33;;
83595;SDS011;73564;45.026;38.952;2024-01-07T14:07:55;6.20;;;2.58;;
83595;SDS011;73564;45.026;38.952;2024-01-07T14:10:21;9.60;;;3.33;;
83595;SDS011;73564;45.026;38.952;2024-01-07T14:12:46;3.92;;;1.88;;
83595;SDS011;73564;45.026;38.952;2024-01-07T14:15:12;5.10;;;2.45;;
83595;SDS011;73564;45.026;38.952;2024-01-07T14:17:38;4.38;;;2.20;;
83595;SDS011;73564;45.026;38.952;2024-01-07T14:20:05;7.00;;;2.38;;
83595;SDS011;73564;45.026;38.952;2024-01-07T14:22:33;4.78;;;2.38;;
83595;SDS011;73564;45.026;38.952;2024-01-07T14:24:58;5.05;;;2.17;;
83595;SDS011;73564;45.026;38.952;2024-01-07T14:27:24;6.07;;;2.13;;
83595;SDS011;73564;45.026;38.952;2024-01-07T14:29:50;4.75;;;2.25;;
83595;SDS011;73564;45.026;38.952;2024-01-07T14:32:16;3.42;;;1.88;;
83595;SDS011;73564;45.026;38.952;2024-01-07T14:34:42;7.50;;;2.67;;
83595;SDS011;73564;45.026;38.952;2024-01-07T14:39:35;5.07;;;2.30;;
83595;SDS011;73564;45.026;38.952;2024-01-07T14:42:02;4.75;;;1.63;;
83595;SDS011;73564;45.026;38.952;2024-01-07T14:44:28;4.28;;;1.77;;
83595;SDS011;73564;45.026;38.952;2024-01-07T14:46:54;4.15;;;1.75;;